world map with FMNA marked

FMNA - Airport

This information may not be accurate or current and is not valid for navigation or flight planning. No warranty of fitness for any purpose is made or implied.

flag of Madagascar

Donate via PayPal

Additional information is available on the NEW Great Circle Mapper

Location
City:  Antsiranana, Madagascar
Name:Arrachart
ICAO / IATA:FMNA / DIE

Details
Type:Airport (Aerodrome, Airfield)
Latitude:12°20'58"S (-12.349399)
Longitude:49°17'30"E (49.291747)
Datum:WGS 1984
Elevation:374 ft (114 m)
Runways:1
Longest:4921 × 98 ft (1500 × 30 m)

Time
Timezone:UTC+3 (DST+5)
Local Time:

Weather
METAR:FMNA  041400Z 26006KT 9999 FEW020 SCT230 29/23 Q1009
TAF:FMNA  041100Z 0412/0512 30007KT 9999 BKN020CB SCT040 PROB40 TEMPO 0412/0424 4000 TSRA

Related Locations
Nearby:
Farthest:MMCD: 10965 mi / 17646 km
Cedros [Isla de Cedros Airport], Isla de Cedros, BCN, MX

Find:

   beyond  
but within

Other Information
Maps:
Sources:

  


 


Great Circle Mapper   Great Circle Mapper
Great Circle Mapper FAQ   Great Circle Mapper FAQ
  Karl's Home Page
KLSē   KLSē Home
   GC on Facebook
Airlines of the World   Airlines of the World
Donate via PayPal


Copyright © 2004-2019, Karl L. Swartz. All rights reserved.
All trademarks mentioned herein belong to their respective owners.

Please see credits for attribution and copyright information.

Karl Swartz <karl@kls2.com>
  Powered by FreeBSD
Valid HTML 4.01!
Labeled with ICRA
hCard Microformat
Geo Microformat